Time;durP1;ratioP1;P1;durP2;ratioP2;P2;SDS_P1;SDS_P2;PMS_P1;PMS_P2;Temp;Humidity;BMP_temperature;BMP_pressure;BME280_temperature;BME280_humidity;BME280_pressure;Samples;Min_cycle;Max_cycle;Signal;HPM_P1;HPM_P2
2022/12/09 00:01:57;;;;;;;;;2.00;1.75;;;;;2.00;88.03;97737.53;4901888;28;101894;-68
2022/12/09 00:04:24;;;;;;;;;1.75;1.00;;;;;1.98;88.04;97733.38;4912342;28;102830;-68
2022/12/09 00:06:52;;;;;;;;;2.75;1.00;;;;;2.00;88.40;97737.53;4913991;28;103397;-69
2022/12/09 00:09:19;;;;;;;;;3.00;2.00;;;;;2.01;88.28;97739.19;4913963;28;101973;-69
2022/12/09 00:11:46;;;;;;;;;3.00;2.75;;;;;1.99;87.35;97735.03;4910679;28;102218;-69
2022/12/09 00:14:13;;;;;;;;;8.50;3.00;;;;;1.99;88.24;97733.19;4916780;28;104621;-69
2022/12/09 00:16:40;;;;;;;;;2.25;2.00;;;;;1.78;87.90;97699.06;4912805;28;107523;-69
2022/12/09 00:19:08;;;;;;;;;2.00;1.00;;;;;2.01;87.99;97744.53;4913202;28;102626;-69
2022/12/09 00:21:35;;;;;;;;;3.50;2.75;;;;;1.94;87.68;97722.19;4915775;28;101998;-69
2022/12/09 00:24:05;;;;;;;;;2.25;2.25;;;;;1.99;87.15;97729.69;4914481;28;102490;-69
2022/12/09 00:26:33;;;;;;;;;3.00;2.00;;;;;1.98;87.35;97736.84;4898326;28;104283;-68
2022/12/09 00:29:01;;;;;;;;;1.75;1.00;;;;;1.98;87.75;97741.38;4881856;28;102148;-70
2022/12/09 00:31:31;;;;;;;;;1.00;1.00;;;;;1.97;86.87;97737.03;4895903;28;102210;-68
2022/12/09 00:34:02;;;;;;;;;2.00;1.25;;;;;1.99;87.46;97735.03;4898796;28;102316;-69
2022/12/09 00:36:30;;;;;;;;;2.50;2.25;;;;;1.99;86.96;97740.34;4898563;28;104276;-68
2022/12/09 00:39:00;;;;;;;;;0.75;0.75;;;;;1.93;86.45;97731.22;4880702;28;102333;-69
2022/12/09 00:41:27;;;;;;;;;2.75;1.50;;;;;1.98;87.31;97752.84;4903783;28;102220;-69
2022/12/09 00:43:55;;;;;;;;;1.50;1.25;;;;;1.93;86.89;97735.72;4906651;28;102184;-69
2022/12/09 00:46:23;;;;;;;;;1.00;1.00;;;;;2.02;86.71;97750.69;4895563;28;104197;-69
2022/12/09 00:48:50;;;;;;;;;2.00;0.00;;;;;2.03;86.99;97749.69;4899686;28;102177;-69
2022/12/09 00:51:20;;;;;;;;;0.75;0.00;;;;;2.04;87.58;97749.53;4888849;28;102096;-69
2022/12/09 00:53:52;;;;;;;;;0.00;0.00;;;;;2.05;86.90;97759.19;4903993;28;102403;-69
2022/12/09 00:56:23;;;;;;;;;1.75;0.75;;;;;2.01;86.08;97755.19;4906807;28;104018;-69
2022/12/09 00:58:50;;;;;;;;;11.25;9.00;;;;;1.84;86.59;97758.88;4892756;28;102440;-70
2022/12/09 01:01:17;;;;;;;;;10.00;9.75;;;;;1.72;87.37;97769.03;4862560;28;102203;-70
2022/12/09 01:03:44;;;;;;;;;15.00;14.00;;;;;1.66;87.63;97772.38;4899999;28;102200;-71
2022/12/09 01:06:16;;;;;;;;;10.75;10.00;;;;;1.70;88.66;97760.38;4903950;28;104576;-69
2022/12/09 01:08:43;;;;;;;;;11.25;9.25;;;;;1.77;87.76;97758.69;4874860;28;102236;-69
2022/12/09 01:11:18;;;;;;;;;7.00;7.00;;;;;1.83;88.68;97761.69;4903667;28;102426;-69
2022/12/09 01:13:46;;;;;;;;;4.50;3.00;;;;;1.85;87.90;97747.19;4867207;28;102546;-72
2022/12/09 01:16:14;;;;;;;;;10.00;6.25;;;;;1.86;87.28;97756.03;4880968;28;103324;-69
2022/12/09 01:18:42;;;;;;;;;5.00;3.00;;;;;1.59;88.14;97703.91;4896932;28;102235;-69
2022/12/09 01:21:10;;;;;;;;;4.25;2.50;;;;;1.78;87.32;97733.72;4902284;28;102346;-69
2022/12/09 01:23:37;;;;;;;;;5.25;3.25;;;;;1.88;87.35;97751.38;4904071;28;102313;-69
2022/12/09 01:26:06;;;;;;;;;2.00;1.00;;;;;1.97;87.63;97748.53;4908728;28;103389;-69
2022/12/09 01:28:35;;;;;;;;;0.75;0.75;;;;;1.98;87.57;97749.38;4896704;28;103565;-69
2022/12/09 01:31:07;;;;;;;;;2.00;0.25;;;;;1.96;87.13;97743.38;4875815;28;101995;-69
2022/12/09 01:33:35;;;;;;;;;1.00;0.00;;;;;2.06;87.58;97760.03;4906589;28;102353;-69
2022/12/09 01:36:09;;;;;;;;;0.00;0.00;;;;;2.09;87.08;97762.34;4911652;28;103974;-69
2022/12/09 01:38:37;;;;;;;;;0.00;0.00;;;;;1.98;87.00;97739.53;4886599;28;102056;-69
2022/12/09 01:41:04;;;;;;;;;0.00;0.00;;;;;1.83;87.42;97711.06;4893053;28;102532;-69
2022/12/09 01:43:31;;;;;;;;;1.00;0.00;;;;;2.08;87.23;97750.00;4902798;28;102132;-69
2022/12/09 01:45:59;;;;;;;;;1.50;0.00;;;;;2.12;86.95;97757.50;4894485;28;104097;-69
2022/12/09 01:48:32;;;;;;;;;0.00;0.00;;;;;2.03;87.15;97744.34;4879120;28;102527;-69
2022/12/09 01:51:06;;;;;;;;;0.00;0.00;;;;;2.06;87.39;97741.38;4905554;28;103213;-69
2022/12/09 01:53:37;;;;;;;;;0.50;0.00;;;;;2.03;87.35;97749.69;4912629;28;102204;-69
2022/12/09 01:56:13;;;;;;;;;0.25;0.00;;;;;2.03;87.39;97741.69;4905637;28;103376;-69
2022/12/09 01:58:41;;;;;;;;;2.50;1.00;;;;;1.95;87.77;97741.69;4905347;28;101992;-70
2022/12/09 02:01:09;;;;;;;;;2.00;1.00;;;;;1.78;88.41;97712.41;4876126;28;102274;-70
2022/12/09 02:03:38;;;;;;;;;1.75;1.00;;;;;1.97;88.42;97740.53;4875094;28;102393;-70
2022/12/09 02:06:05;;;;;;;;;0.50;0.50;;;;;1.79;88.72;97715.91;4883783;28;103717;-70
2022/12/09 02:08:43;;;;;;;;;0.25;0.00;;;;;1.84;89.09;97723.41;4846987;28;102855;-70
2022/12/09 02:11:32;;;;;;;;;0.75;0.75;;;;;1.86;89.16;97730.22;4883868;28;102296;-70
2022/12/09 02:14:46;;;;;;;;;0.00;0.00;;;;;1.84;90.00;97726.06;4897952;28;102173;-71
2022/12/09 02:17:42;;;;;;;;;0.00;0.00;;;;;1.80;89.75;97721.03;4909921;28;109286;-70
2022/12/09 02:20:52;;;;;;;;;0.50;0.00;;;;;1.79;89.50;97726.56;4894653;28;102323;-71
2022/12/09 02:24:20;;;;;;;;;1.00;1.00;;;;;1.74;90.94;97721.72;4876613;28;102817;-70
2022/12/09 02:27:14;;;;;;;;;1.25;1.25;;;;;1.60;90.64;97722.41;4808143;28;102457;-70
2022/12/09 02:30:21;;;;;;;;;4.25;2.00;;;;;1.51;92.09;97719.91;4886760;28;108701;-71
2022/12/09 02:33:00;;;;;;;;;2.00;2.00;;;;;1.56;91.80;97715.75;4888138;28;102248;-70
2022/12/09 02:35:54;;;;;;;;;2.00;2.00;;;;;1.48;91.30;97697.09;4910791;28;102447;-70
2022/12/09 02:38:42;;;;;;;;;0.00;0.00;;;;;1.62;92.15;97722.25;4902821;28;102352;-70
2022/12/09 02:41:18;;;;;;;;;1.00;0.00;;;;;1.64;90.90;97718.41;4913855;28;108355;-70
2022/12/09 02:44:08;;;;;;;;;0.00;0.00;;;;;1.64;91.28;97721.06;4902640;28;102286;-70
2022/12/09 02:46:40;;;;;;;;;0.50;0.50;;;;;1.66;91.37;97718.25;4835083;28;102414;-70
2022/12/09 02:49:08;;;;;;;;;1.00;0.00;;;;;1.58;91.31;97700.41;4913869;28;102296;-70
2022/12/09 02:51:40;;;;;;;;;1.00;0.00;;;;;1.61;91.22;97702.75;4910777;28;103303;-70
2022/12/09 02:54:14;;;;;;;;;1.75;1.00;;;;;1.31;91.31;97660.78;4890884;28;102096;-69
2022/12/09 02:56:58;;;;;;;;;0.00;0.00;;;;;1.60;90.90;97694.91;4869038;28;102494;-69
2022/12/09 02:59:26;;;;;;;;;0.00;0.00;;;;;1.72;91.27;97709.56;4900580;28;102711;-70
2022/12/09 03:02:21;;;;;;;;;0.00;0.00;;;;;1.69;90.78;97699.25;4881064;28;104255;-70
2022/12/09 03:05:10;;;;;;;;;0.00;0.00;;;;;1.69;90.82;97704.56;4894006;28;102538;-70
2022/12/09 03:07:53;;;;;;;;;0.00;0.00;;;;;1.72;91.01;97712.22;4911763;28;102076;-70
2022/12/09 03:10:30;;;;;;;;;0.00;0.00;;;;;1.74;90.34;97707.56;4887636;28;102114;-71
2022/12/09 03:13:09;;;;;;;;;0.00;0.00;;;;;1.65;90.78;97698.75;4910767;28;103992;-70
2022/12/09 03:15:41;;;;;;;;;0.00;0.00;;;;;1.74;91.09;97711.06;4912840;28;102318;-70
2022/12/09 03:18:12;;;;;;;;;0.00;0.00;;;;;1.74;90.90;97708.41;4903808;28;102400;-68
2022/12/09 03:20:42;;;;;;;;;0.75;0.00;;;;;1.63;91.90;97706.06;4910494;28;102522;-70
2022/12/09 03:23:14;;;;;;;;;2.00;0.00;;;;;1.60;91.88;97698.41;4898838;28;103622;-70
2022/12/09 03:25:47;;;;;;;;;0.75;0.00;;;;;1.64;91.34;97709.56;4906238;28;102363;-69
2022/12/09 03:28:18;;;;;;;;;1.00;0.50;;;;;1.69;92.18;97704.56;4914226;28;103082;-69
2022/12/09 03:30:46;;;;;;;;;0.00;0.00;;;;;1.62;91.15;97693.75;4909033;28;102357;-71
2022/12/09 03:33:17;;;;;;;;;0.00;0.00;;;;;1.54;91.22;97683.09;4916940;28;108204;-69
2022/12/09 03:35:53;;;;;;;;;0.00;0.00;;;;;1.55;92.24;97690.09;4911052;28;104070;-72
2022/12/09 03:38:24;;;;;;;;;0.50;0.50;;;;;1.58;92.57;97695.06;4907180;28;103842;-69
2022/12/09 03:41:06;;;;;;;;;1.00;0.75;;;;;1.57;92.21;97698.75;4912076;28;103077;-69
2022/12/09 03:43:37;;;;;;;;;0.00;0.00;;;;;1.60;92.75;97698.41;4910141;28;104241;-69
2022/12/09 03:46:04;;;;;;;;;0.00;0.00;;;;;1.49;91.95;97680.09;4910505;28;102065;-69
2022/12/09 03:48:32;;;;;;;;;1.00;1.00;;;;;1.51;92.55;97688.75;4911357;28;102286;-70
2022/12/09 03:51:44;;;;;;;;;1.00;1.00;;;;;1.56;92.37;97698.91;4912270;28;102458;-69
2022/12/09 03:54:19;;;;;;;;;0.00;0.00;;;;;1.63;93.07;97703.41;4904373;28;108227;-69
2022/12/09 03:56:52;;;;;;;;;0.00;0.00;;;;;1.66;92.61;97703.09;4909408;28;102483;-69
2022/12/09 03:59:22;;;;;;;;;0.00;0.00;;;;;1.67;92.25;97699.41;4911611;28;102137;-70
2022/12/09 04:01:50;;;;;;;;;0.00;0.00;;;;;1.74;92.25;97704.91;4912990;28;102135;-69
2022/12/09 04:04:18;;;;;;;;;0.00;0.00;;;;;1.65;91.63;97692.59;4913432;28;104245;-70
2022/12/09 04:06:47;;;;;;;;;0.00;0.00;;;;;1.56;91.78;97666.94;4914111;28;102831;-70
2022/12/09 04:09:14;;;;;;;;;0.00;0.00;;;;;1.78;91.08;97703.56;4914710;28;102441;-69
2022/12/09 04:11:41;;;;;;;;;0.00;0.00;;;;;1.79;90.97;97703.41;4914126;28;102277;-70
2022/12/09 04:14:08;;;;;;;;;0.00;0.00;;;;;1.79;91.60;97700.75;4913895;28;104157;-70
2022/12/09 04:16:41;;;;;;;;;0.00;0.00;;;;;1.78;90.96;97693.75;4890919;28;102303;-70
2022/12/09 04:19:10;;;;;;;;;0.00;0.00;;;;;1.80;91.34;97694.41;4913252;28;101985;-69
2022/12/09 04:21:38;;;;;;;;;0.00;0.00;;;;;1.77;90.89;97697.41;4908801;28;102024;-70
2022/12/09 04:24:08;;;;;;;;;0.00;0.00;;;;;1.76;91.39;97701.06;4912073;28;104049;-70
2022/12/09 04:26:35;;;;;;;;;0.00;0.00;;;;;1.70;91.04;97693.75;4882313;28;102198;-69
2022/12/09 04:29:02;;;;;;;;;0.00;0.00;;;;;1.78;90.85;97690.25;4875701;28;102191;-70
2022/12/09 04:31:29;;;;;;;;;0.50;0.00;;;;;1.79;90.59;97695.41;4875102;28;102474;-69
2022/12/09 04:33:56;;;;;;;;;0.00;0.00;;;;;1.67;90.64;97677.25;4886513;28;104012;-70
2022/12/09 04:36:30;;;;;;;;;0.00;0.00;;;;;1.67;91.12;97678.09;4907519;28;102538;-70
2022/12/09 04:38:58;;;;;;;;;0.00;0.00;;;;;1.79;90.58;97695.41;4896981;28;102250;-70
2022/12/09 04:41:25;;;;;;;;;0.00;0.00;;;;;1.80;91.28;97705.06;4887669;28;102326;-69
2022/12/09 04:43:52;;;;;;;;;0.00;0.00;;;;;1.80;90.98;97701.59;4882880;28;104048;-70
2022/12/09 04:46:19;;;;;;;;;0.00;0.00;;;;;1.72;90.70;97690.91;4892220;28;102437;-72
2022/12/09 04:48:46;;;;;;;;;0.00;0.00;;;;;1.75;90.78;97687.94;4885824;28;102164;-72
2022/12/09 04:51:16;;;;;;;;;0.00;0.00;;;;;1.76;91.25;97693.06;4897433;28;102210;-69
2022/12/09 04:53:43;;;;;;;;;0.00;0.00;;;;;1.63;91.09;97676.75;4888123;28;104046;-69
2022/12/09 04:56:18;;;;;;;;;0.00;0.00;;;;;1.67;90.25;97671.94;4876580;28;101960;-70
2022/12/09 04:58:46;;;;;;;;;1.00;0.00;;;;;1.76;90.61;97695.72;4880625;28;102375;-70
2022/12/09 05:01:15;;;;;;;;;0.00;0.00;;;;;1.76;90.71;97694.91;4861333;28;102266;-69
2022/12/09 05:03:48;;;;;;;;;0.00;0.00;;;;;1.75;91.03;97702.09;4890631;28;108347;-68
2022/12/09 05:06:17;;;;;;;;;0.00;0.00;;;;;1.62;90.51;97685.75;4878787;28;104540;-70
2022/12/09 05:08:45;;;;;;;;;0.00;0.00;;;;;1.49;91.41;97671.28;4876617;28;102344;-69
2022/12/09 05:11:17;;;;;;;;;0.00;0.00;;;;;1.67;91.29;97707.41;4875064;28;105243;-73
2022/12/09 05:13:45;;;;;;;;;0.00;0.00;;;;;1.42;91.44;97654.31;4898727;28;109019;-68
2022/12/09 05:16:15;;;;;;;;;0.00;0.00;;;;;1.63;91.05;97695.41;4896753;28;102140;-70
2022/12/09 05:18:44;;;;;;;;;0.00;0.00;;;;;1.70;90.83;97699.09;4899704;28;108847;-69
2022/12/09 05:21:18;;;;;;;;;0.00;0.00;;;;;1.71;90.94;97695.41;4849397;28;102116;-69
2022/12/09 05:23:46;;;;;;;;;0.00;0.00;;;;;1.71;90.34;97694.59;4886721;28;108600;-70
2022/12/09 05:26:17;;;;;;;;;0.75;0.00;;;;;1.68;90.22;97695.75;4904815;28;102423;-71
2022/12/09 05:28:45;;;;;;;;;0.00;0.00;;;;;1.63;90.53;97695.41;4897270;28;102107;-70
2022/12/09 05:31:15;;;;;;;;;0.00;0.00;;;;;1.60;90.54;97690.44;4895567;28;102235;-70
2022/12/09 05:33:45;;;;;;;;;1.00;1.00;;;;;1.51;91.40;97691.44;4893495;28;108522;-70
2022/12/09 05:36:15;;;;;;;;;0.00;0.00;;;;;1.53;91.06;97700.06;4856336;28;102364;-69
2022/12/09 05:38:43;;;;;;;;;0.00;0.00;;;;;1.50;92.07;97676.44;4885811;28;102287;-70
2022/12/09 05:41:11;;;;;;;;;0.00;0.00;;;;;1.45;91.00;97672.59;4878252;28;102524;-70
2022/12/09 05:43:38;;;;;;;;;0.00;0.00;;;;;1.54;90.92;97699.06;4901307;28;103717;-69
2022/12/09 05:46:09;;;;;;;;;0.00;0.00;;;;;1.50;90.43;97689.75;4904239;28;102467;-69
2022/12/09 05:48:38;;;;;;;;;0.00;0.00;;;;;1.48;90.18;97699.75;4895031;28;102462;-70
2022/12/09 05:51:23;;;;;;;;;0.00;0.00;;;;;1.42;89.88;97689.75;4884372;28;102137;-70
2022/12/09 05:53:52;;;;;;;;;2.00;2.00;;;;;1.23;91.38;97674.09;4884674;28;108825;-69
2022/12/09 05:56:22;;;;;;;;;1.50;1.00;;;;;1.34;91.98;97692.44;4882690;28;102197;-69
2022/12/09 05:58:50;;;;;;;;;1.25;1.00;;;;;1.35;91.42;97694.09;4869932;28;102223;-69
2022/12/09 06:01:18;;;;;;;;;1.75;1.75;;;;;0.99;91.40;97645.63;4886730;28;104232;-69
2022/12/09 06:03:47;;;;;;;;;4.00;3.25;;;;;1.20;92.03;97679.75;4895353;28;108070;-70
2022/12/09 06:06:17;;;;;;;;;1.50;1.00;;;;;1.33;91.67;97712.06;4902544;28;102407;-70
2022/12/09 06:08:45;;;;;;;;;0.00;0.00;;;;;1.33;92.37;97704.91;4899531;28;102350;-70
2022/12/09 06:11:16;;;;;;;;;2.00;1.00;;;;;1.31;91.69;97701.56;4892412;28;102152;-70
2022/12/09 06:13:46;;;;;;;;;0.50;0.25;;;;;1.22;91.98;97681.25;4901370;28;109007;-71
2022/12/09 06:16:18;;;;;;;;;1.00;0.00;;;;;1.37;91.96;97708.06;4905811;28;102011;-70
2022/12/09 06:18:46;;;;;;;;;0.00;0.00;;;;;1.38;91.59;97706.25;4881128;28;102428;-70
2022/12/09 06:21:16;;;;;;;;;0.00;0.00;;;;;1.40;92.33;97694.41;4899414;28;102285;-70
2022/12/09 06:23:43;;;;;;;;;0.00;0.00;;;;;1.25;92.60;97661.47;4898511;28;109230;-70
2022/12/09 06:26:15;;;;;;;;;0.00;0.00;;;;;1.41;92.69;97708.56;4912946;28;102420;-70
2022/12/09 06:28:44;;;;;;;;;0.00;0.00;;;;;1.40;91.87;97697.06;4880951;28;102914;-70
2022/12/09 06:31:12;;;;;;;;;0.00;0.00;;;;;1.41;92.18;97703.22;4908600;28;102874;-70
2022/12/09 06:33:40;;;;;;;;;0.00;0.00;;;;;1.27;91.71;97673.59;4914012;28;104149;-70
2022/12/09 06:36:26;;;;;;;;;0.75;0.00;;;;;1.45;91.75;97704.56;4914556;28;102283;-70
2022/12/09 06:38:56;;;;;;;;;0.75;0.00;;;;;1.39;92.28;97683.94;4914886;28;102143;-70
2022/12/09 06:41:28;;;;;;;;;1.00;0.50;;;;;1.49;91.49;97700.56;4900406;28;102563;-70
2022/12/09 06:43:57;;;;;;;;;0.00;0.00;;;;;1.47;92.40;97692.75;4896637;28;104223;-70
2022/12/09 06:46:25;;;;;;;;;1.75;0.75;;;;;1.39;91.65;97682.13;4893447;28;102200;-70
2022/12/09 06:48:54;;;;;;;;;2.25;1.00;;;;;1.42;92.42;97704.91;4915406;28;104445;-69
2022/12/09 06:51:23;;;;;;;;;3.00;2.75;;;;;1.43;92.13;97688.78;4895732;28;102036;-69
2022/12/09 06:53:51;;;;;;;;;1.00;0.75;;;;;1.31;92.63;97666.09;4901772;28;103724;-69
2022/12/09 06:56:19;;;;;;;;;1.00;1.00;;;;;1.42;92.15;97679.09;4914148;28;102364;-69
2022/12/09 06:58:46;;;;;;;;;0.00;0.00;;;;;1.49;91.97;97689.91;4903247;28;102834;-68
2022/12/09 07:01:19;;;;;;;;;0.00;0.00;;;;;1.53;92.24;97689.41;4897607;28;102546;-69
2022/12/09 07:03:49;;;;;;;;;0.00;0.00;;;;;1.54;91.79;97682.25;4914739;28;108693;-68
2022/12/09 07:06:25;;;;;;;;;0.50;0.00;;;;;1.58;91.74;97683.59;4913998;28;102735;-69
2022/12/09 07:08:54;;;;;;;;;0.00;0.00;;;;;1.53;91.98;97668.09;4911956;28;108706;-69
2022/12/09 07:11:22;;;;;;;;;0.00;0.00;;;;;1.56;91.18;97670.44;4914937;28;102378;-69
2022/12/09 07:13:50;;;;;;;;;0.00;0.00;;;;;1.48;91.43;97657.16;4913038;28;104096;-70
2022/12/09 07:16:17;;;;;;;;;0.00;0.00;;;;;1.53;91.57;97653.97;4917717;28;102273;-69
2022/12/09 07:18:45;;;;;;;;;0.00;0.00;;;;;1.58;91.47;97646.28;4905880;28;102362;-69
2022/12/09 07:21:16;;;;;;;;;0.50;0.00;;;;;1.65;91.25;97648.13;4869136;28;102167;-71
2022/12/09 07:23:44;;;;;;;;;0.00;0.00;;;;;1.43;91.17;97605.38;4896453;28;108865;-69
2022/12/09 07:26:11;;;;;;;;;1.00;0.00;;;;;1.79;91.80;97673.25;4902635;28;102351;-70
2022/12/09 07:28:43;;;;;;;;;0.00;0.00;;;;;1.80;91.17;97665.06;4885769;28;102330;-70
2022/12/09 07:31:22;;;;;;;;;0.25;0.25;;;;;1.80;90.80;97678.41;4898000;28;102316;-70
2022/12/09 07:33:51;;;;;;;;;1.00;1.00;;;;;1.77;91.04;97656.59;4910800;28;109188;-69
2022/12/09 07:36:20;;;;;;;;;0.75;0.00;;;;;1.79;91.02;97654.59;4903568;28;102122;-70
2022/12/09 07:38:56;;;;;;;;;1.00;1.00;;;;;1.86;91.59;97665.41;4894811;28;102367;-70
2022/12/09 07:41:24;;;;;;;;;2.50;2.50;;;;;1.60;91.42;97629.16;4908290;28;102295;-71
2022/12/09 07:43:56;;;;;;;;;1.00;1.00;;;;;1.79;91.37;97644.78;4874877;28;104455;-70
2022/12/09 07:46:26;;;;;;;;;2.25;2.00;;;;;1.87;91.52;97651.09;4903905;28;103050;-69
2022/12/09 07:48:55;;;;;;;;;1.50;0.75;;;;;2.00;91.15;97672.72;4902021;28;102353;-70
2022/12/09 07:51:24;;;;;;;;;1.00;1.00;;;;;1.90;90.78;97650.75;4904777;28;102440;-70
2022/12/09 07:53:52;;;;;;;;;1.00;1.00;;;;;2.02;91.03;97663.56;4895966;28;104038;-70
2022/12/09 07:56:20;;;;;;;;;1.25;0.00;;;;;2.10;91.39;97665.38;4900031;28;102148;-68
2022/12/09 07:58:52;;;;;;;;;1.00;1.00;;;;;2.09;90.71;97666.38;4884840;28;102520;-69
2022/12/09 08:01:28;;;;;;;;;1.25;1.00;;;;;2.14;91.60;97670.19;4901805;28;102083;-70
2022/12/09 08:03:55;;;;;;;;;0.75;0.75;;;;;2.07;91.24;97655.06;4897544;28;111020;-70
2022/12/09 08:06:28;;;;;;;;;0.00;0.00;;;;;2.10;91.13;97652.03;4878420;28;102522;-70
2022/12/09 08:09:00;;;;;;;;;0.00;0.00;;;;;2.29;91.13;97680.16;4873582;28;102104;-70
2022/12/09 08:11:29;;;;;;;;;0.75;0.50;;;;;2.28;90.01;97675.81;4866754;28;102186;-69
2022/12/09 08:13:59;;;;;;;;;0.00;0.00;;;;;2.32;90.40;97672.63;4893559;28;104251;-69
2022/12/09 08:16:35;;;;;;;;;1.25;1.00;;;;;2.41;90.07;97671.59;4907311;28;102485;-69
2022/12/09 08:19:04;;;;;;;;;1.00;0.00;;;;;2.43;89.73;97674.09;4902440;28;102190;-69
2022/12/09 08:21:32;;;;;;;;;1.00;0.00;;;;;2.45;89.54;97664.91;4901906;28;102241;-69
2022/12/09 08:24:01;;;;;;;;;0.25;0.00;;;;;2.57;89.56;97687.53;4879715;28;103596;-69
2022/12/09 08:26:30;;;;;;;;;0.00;0.00;;;;;2.61;89.24;97682.69;4894706;28;101994;-70
2022/12/09 08:28:58;;;;;;;;;0.00;0.00;;;;;2.59;89.17;97680.19;4883791;28;102420;-69
2022/12/09 08:31:27;;;;;;;;;0.75;0.00;;;;;2.62;87.82;97679.84;4894697;28;102515;-69
2022/12/09 08:33:55;;;;;;;;;1.50;0.00;;;;;2.62;88.22;97679.84;4893151;28;103024;-69
2022/12/09 08:36:26;;;;;;;;;0.00;0.00;;;;;2.67;87.95;97688.16;4895189;28;102197;-70
2022/12/09 08:38:56;;;;;;;;;0.00;0.00;;;;;2.69;88.03;97686.16;4892870;28;102180;-69
2022/12/09 08:41:36;;;;;;;;;0.00;0.00;;;;;2.68;88.20;97684.50;4896508;28;102482;-69
2022/12/09 08:44:18;;;;;;;;;1.00;0.00;;;;;2.72;88.38;97684.13;4887033;28;103454;-69
2022/12/09 08:46:51;;;;;;;;;0.00;0.00;;;;;2.47;87.75;97638.06;4894397;28;103058;-69
2022/12/09 08:49:21;;;;;;;;;0.00;0.00;;;;;2.54;88.39;97653.19;4878361;28;102442;-69
2022/12/09 08:51:51;;;;;;;;;0.00;0.00;;;;;2.89;88.04;97685.69;4853324;28;102512;-69
2022/12/09 08:54:19;;;;;;;;;1.25;0.00;;;;;2.76;87.96;97645.41;4893287;28;108474;-69
2022/12/09 08:56:49;;;;;;;;;0.00;0.00;;;;;3.01;87.80;97666.47;4895082;28;102226;-69
2022/12/09 08:59:17;;;;;;;;;0.00;0.00;;;;;3.06;87.30;97671.28;4876821;28;102356;-69
2022/12/09 09:01:44;;;;;;;;;0.50;0.00;;;;;3.01;86.83;97657.63;4877826;28;102367;-69
2022/12/09 09:04:15;;;;;;;;;0.00;0.00;;;;;3.12;86.94;97659.88;4874535;28;104126;-69
2022/12/09 09:06:46;;;;;;;;;0.00;0.00;;;;;3.27;86.69;97665.28;4894193;28;102512;-69
2022/12/09 09:09:13;;;;;;;;;0.00;0.00;;;;;3.22;85.75;97640.94;4892811;28;101905;-69
2022/12/09 09:11:42;;;;;;;;;0.25;0.00;;;;;3.22;84.01;97647.13;4894643;28;102352;-69
2022/12/09 09:14:12;;;;;;;;;1.00;0.00;;;;;3.41;85.24;97670.69;4881219;28;104077;-70
2022/12/09 09:16:41;;;;;;;;;0.00;0.00;;;;;3.43;81.20;97663.31;4879793;28;101955;-69
2022/12/09 09:19:15;;;;;;;;;2.00;0.00;;;;;3.52;82.77;97658.72;4889965;28;102358;-69
2022/12/09 09:21:42;;;;;;;;;1.00;1.00;;;;;3.62;83.10;97663.81;4868975;28;102209;-69
2022/12/09 09:24:15;;;;;;;;;3.00;1.00;;;;;3.54;79.16;97654.88;4869582;28;104030;-69
2022/12/09 09:26:42;;;;;;;;;1.00;1.00;;;;;3.64;80.63;97657.31;4899329;28;102475;-69
2022/12/09 09:29:11;;;;;;;;;0.50;0.50;;;;;3.73;81.36;97642.84;4897477;28;102517;-69
2022/12/09 09:31:39;;;;;;;;;1.75;0.75;;;;;3.81;79.99;97647.28;4871092;28;102889;-69
2022/12/09 09:34:07;;;;;;;;;0.00;0.00;;;;;3.88;78.82;97641.00;4906561;28;104093;-69
2022/12/09 09:36:34;;;;;;;;;0.00;0.00;;;;;3.80;76.06;97633.09;4907584;28;102450;-69
2022/12/09 09:39:01;;;;;;;;;1.00;0.00;;;;;3.91;78.19;97650.53;4908124;28;102945;-69
2022/12/09 09:41:31;;;;;;;;;0.25;0.00;;;;;3.95;77.39;97646.47;4895567;28;102330;-69
2022/12/09 09:44:00;;;;;;;;;0.00;0.00;;;;;4.00;78.20;97654.78;4901039;28;104086;-69
2022/12/09 09:46:41;;;;;;;;;0.25;0.00;;;;;4.02;77.24;97658.09;4905615;28;102014;-69
2022/12/09 09:49:19;;;;;;;;;0.00;0.00;;;;;3.93;77.02;97624.41;4906351;28;102108;-70
2022/12/09 09:51:46;;;;;;;;;0.00;0.00;;;;;4.05;77.17;97642.50;4887314;28;102191;-69
2022/12/09 09:54:14;;;;;;;;;0.00;0.00;;;;;4.08;78.69;97651.19;4904246;28;104008;-69
2022/12/09 09:56:53;;;;;;;;;3.00;1.75;;;;;3.95;78.50;97641.97;4902548;28;102114;-69
2022/12/09 09:59:39;;;;;;;;;4.00;4.00;;;;;3.84;78.23;97628.19;4911755;28;102116;-71
2022/12/09 10:02:17;;;;;;;;;4.00;4.00;;;;;3.73;77.57;97620.63;4866324;28;101959;-69
2022/12/09 10:05:06;;;;;;;;;2.75;2.75;;;;;3.89;78.43;97631.16;4899630;28;104406;-70
2022/12/09 10:07:40;;;;;;;;;3.00;3.00;;;;;3.79;78.49;97593.16;4909291;28;103085;-69
2022/12/09 10:10:41;;;;;;;;;4.00;2.75;;;;;3.91;78.89;97623.78;4905688;28;102534;-70
2022/12/09 10:13:25;;;;;;;;;3.75;3.00;;;;;3.82;78.73;97598.16;4875914;28;102097;-69
2022/12/09 10:16:01;;;;;;;;;1.00;1.00;;;;;3.97;78.88;97618.53;4903608;28;108515;-70
2022/12/09 10:18:41;;;;;;;;;1.00;1.00;;;;;3.96;78.86;97608.84;4902965;28;102104;-69
2022/12/09 10:21:17;;;;;;;;;0.75;0.00;;;;;3.90;78.10;97622.13;4908163;28;102311;-70
2022/12/09 10:23:46;;;;;;;;;1.00;1.00;;;;;3.83;78.73;97600.63;4887907;28;103296;-69
2022/12/09 10:26:22;;;;;;;;;0.50;0.50;;;;;3.97;76.93;97612.34;4915859;28;104054;-69
2022/12/09 10:28:58;;;;;;;;;3.50;1.00;;;;;3.82;77.53;97600.81;4875935;28;102088;-70
2022/12/09 10:31:27;;;;;;;;;2.75;2.00;;;;;3.93;77.65;97611.06;4903409;28;101914;-70
2022/12/09 10:33:54;;;;;;;;;7.25;6.25;;;;;3.81;77.87;97615.19;4906900;28;102445;-70
2022/12/09 10:36:27;;;;;;;;;10.25;7.75;;;;;3.75;76.94;97613.25;4911960;28;104191;-69
2022/12/09 10:39:02;;;;;;;;;5.00;3.00;;;;;3.90;77.05;97601.56;4894221;28;103624;-70
2022/12/09 10:44:26;;;;;;;;;5.50;1.75;;;;;4.00;76.17;97594.09;4882172;28;102331;-69
2022/12/09 10:47:01;;;;;;;;;8.25;6.75;;;;;3.74;77.70;97596.38;4902669;28;104033;-71
2022/12/09 10:49:30;;;;;;;;;6.75;5.75;;;;;3.50;77.12;97578.75;4873196;28;102082;-70
2022/12/09 10:51:58;;;;;;;;;7.75;7.75;;;;;3.50;78.91;97576.09;4895332;28;102123;-69
2022/12/09 10:54:31;;;;;;;;;11.00;5.25;;;;;3.51;78.47;97592.94;4902436;28;102401;-70
2022/12/09 10:57:05;;;;;;;;;12.75;8.75;;;;;3.38;78.56;97588.19;4896215;28;104478;-69
2022/12/09 10:59:34;;;;;;;;;11.75;10.00;;;;;3.27;78.74;97569.13;4912032;28;102200;-70
2022/12/09 11:02:22;;;;;;;;;7.00;7.00;;;;;3.46;78.17;97593.50;4881120;28;103014;-70
2022/12/09 11:04:50;;;;;;;;;7.25;7.00;;;;;3.26;77.28;97564.78;4892802;28;102379;-70
2022/12/09 11:07:22;;;;;;;;;8.50;7.00;;;;;3.36;78.94;97586.72;4893902;28;103445;-69
2022/12/09 11:09:55;;;;;;;;;7.00;5.00;;;;;3.44;80.54;97590.16;4849280;28;103063;-69
2022/12/09 11:12:28;;;;;;;;;7.00;6.00;;;;;3.47;79.07;97594.28;4900950;28;102018;-70
2022/12/09 11:15:24;;;;;;;;;6.50;6.50;;;;;3.53;79.67;97586.41;4914932;28;102412;-69
2022/12/09 11:17:58;;;;;;;;;6.75;5.25;;;;;3.62;79.11;97584.47;4914329;28;108961;-70
2022/12/09 11:20:31;;;;;;;;;5.75;4.50;;;;;3.66;79.02;97584.94;4903455;28;102336;-70
2022/12/09 11:23:03;;;;;;;;;2.50;1.75;;;;;3.69;79.42;97568.56;4913840;28;103879;-69
2022/12/09 11:25:36;;;;;;;;;6.25;6.25;;;;;3.65;77.50;97570.72;4915395;28;102417;-70
2022/12/09 11:28:25;;;;;;;;;7.00;5.50;;;;;3.75;78.23;97581.16;4912946;28;104235;-69
2022/12/09 11:31:00;;;;;;;;;11.25;7.75;;;;;3.44;77.63;97563.44;4900638;28;102199;-69
2022/12/09 11:33:55;;;;;;;;;7.00;5.00;;;;;3.72;76.26;97570.84;4893452;28;102369;-70
2022/12/09 11:36:32;;;;;;;;;3.00;2.50;;;;;3.84;77.50;97556.84;4910788;28;102713;-72
2022/12/09 11:39:18;;;;;;;;;5.00;2.50;;;;;4.00;76.93;97563.84;4909700;28;108591;-69
2022/12/09 11:44:57;;;;;;;;;1.00;1.00;;;;;4.09;76.11;97557.41;4909839;28;102275;-69
2022/12/09 11:47:33;;;;;;;;;3.00;2.25;;;;;4.12;77.52;97549.00;4912614;28;102197;-69
2022/12/09 11:50:25;;;;;;;;;7.00;7.00;;;;;3.92;76.48;97545.22;4906939;28;108379;-69
2022/12/09 11:53:10;;;;;;;;;10.25;9.00;;;;;3.95;76.82;97550.22;4895629;28;102626;-69
2022/12/09 11:55:44;;;;;;;;;6.25;6.25;;;;;3.99;76.84;97544.31;4897318;28;101961;-69
2022/12/09 11:58:25;;;;;;;;;7.00;6.75;;;;;4.00;77.90;97518.41;4890838;28;102096;-70
2022/12/09 12:01:04;;;;;;;;;16.25;12.00;;;;;3.95;77.43;97524.31;4900622;28;108582;-70
2022/12/09 12:03:41;;;;;;;;;7.75;6.00;;;;;4.03;77.98;97512.66;4903261;28;102217;-69
2022/12/09 12:06:20;;;;;;;;;7.75;7.00;;;;;4.12;78.00;97518.72;4911083;28;102328;-68